Time;durP1;ratioP1;P1;durP2;ratioP2;P2;SDS_P1;SDS_P2;PMS_P1;PMS_P2;Temp;Humidity;BMP_temperature;BMP_pressure;BME280_temperature;BME280_humidity;BME280_pressure;Samples;Min_cycle;Max_cycle;Signal;HPM_P1;HPM_P2
2023/02/19 00:02:51;;;;;;;11.88;5.68;;;11.20;51.20;;;;;;20928549;28;20458;-58
2023/02/19 00:12:54;;;;;;;9.80;5.63;;;11.10;51.70;;;;;;20927341;28;20057;-63
2023/02/19 00:22:55;;;;;;;10.68;4.80;;;11.10;51.70;;;;;;20924952;28;20061;-56
2023/02/19 00:32:57;;;;;;;13.60;4.65;;;11.10;52.00;;;;;;20926098;28;20393;-60
2023/02/19 00:42:58;;;;;;;9.88;5.35;;;11.10;52.40;;;;;;20923685;28;20081;-60
2023/02/19 00:53:00;;;;;;;11.65;5.28;;;11.00;52.60;;;;;;20924217;28;20049;-59
2023/02/19 01:03:02;;;;;;;14.10;6.05;;;11.00;52.80;;;;;;20923190;28;20052;-58
2023/02/19 01:13:03;;;;;;;10.23;4.90;;;10.90;53.00;;;;;;20925477;28;20080;-57
2023/02/19 01:23:05;;;;;;;12.63;5.85;;;10.90;53.10;;;;;;20922533;28;20577;-64
2023/02/19 01:33:08;;;;;;;12.18;4.93;;;11.00;53.30;;;;;;20922563;28;20095;-57
2023/02/19 01:43:15;;;;;;;14.77;5.60;;;10.90;53.70;;;;;;20919456;28;20159;-61
2023/02/19 01:53:20;;;;;;;10.00;3.88;;;10.90;54.00;;;;;;20918504;28;20053;-55
2023/02/19 02:03:23;;;;;;;10.40;4.72;;;10.90;54.10;;;;;;20918937;28;20049;-57
2023/02/19 02:13:25;;;;;;;13.07;5.07;;;10.90;54.10;;;;;;20916691;28;20495;-56
2023/02/19 02:23:27;;;;;;;13.40;5.15;;;10.90;54.70;;;;;;20916331;28;20072;-56
2023/02/19 02:33:43;;;;;;;8.18;4.43;;;10.80;55.50;;;;;;20917397;28;20110;-56
2023/02/19 02:43:45;;;;;;;12.02;5.30;;;10.70;56.30;;;;;;20916143;28;20060;-67
2023/02/19 03:36:11;;;;;;;10.05;5.18;;;10.10;59.80;;;;;;20912129;28;20103;-57
2023/02/19 03:46:45;;;;;;;14.85;4.80;;;10.00;60.40;;;;;;20912627;28;20052;-57
2023/02/19 03:57:09;;;;;;;12.05;5.53;;;9.90;60.90;;;;;;20895961;28;20064;-55
2023/02/19 04:07:12;;;;;;;20.98;8.20;;;9.80;61.30;;;;;;20915089;28;20059;-56
2023/02/19 04:17:25;;;;;;;13.38;5.30;;;9.70;62.00;;;;;;20925758;28;20059;-55
2023/02/19 04:27:28;;;;;;;10.20;5.60;;;9.60;62.70;;;;;;20925505;28;20056;-56
2023/02/19 04:37:30;;;;;;;11.40;5.55;;;9.50;62.80;;;;;;20925032;28;20119;-55
2023/02/19 04:47:33;;;;;;;10.63;5.28;;;9.50;63.00;;;;;;20925017;28;20063;-60
2023/02/19 04:57:35;;;;;;;11.02;5.18;;;9.40;63.40;;;;;;20922549;28;20080;-55
2023/02/19 05:07:38;;;;;;;12.43;5.13;;;9.30;64.10;;;;;;20922063;28;20049;-57
2023/02/19 05:17:39;;;;;;;11.15;5.45;;;9.30;64.60;;;;;;20922361;28;20447;-57
2023/02/19 05:27:41;;;;;;;13.65;5.50;;;9.20;65.30;;;;;;20920687;28;20452;-56
2023/02/19 05:37:42;;;;;;;12.32;6.13;;;9.10;65.70;;;;;;20918984;28;20056;-55
2023/02/19 05:47:44;;;;;;;9.65;5.72;;;9.00;65.90;;;;;;20920259;28;20545;-57
2023/02/19 05:57:47;;;;;;;12.88;6.22;;;9.00;65.80;;;;;;20919014;28;20132;-60
2023/02/19 06:07:49;;;;;;;13.70;6.75;;;8.90;66.00;;;;;;20924428;28;20045;-63
2023/02/19 06:17:51;;;;;;;14.18;6.30;;;8.80;65.30;;;;;;20918244;28;20049;-64
2023/02/19 06:27:53;;;;;;;16.05;6.53;;;8.80;65.30;;;;;;20914532;28;20053;-55
2023/02/19 06:37:55;;;;;;;15.13;6.20;;;8.70;65.60;;;;;;20915246;28;20052;-65
2023/02/19 06:47:58;;;;;;;21.13;7.28;;;8.50;66.00;;;;;;20914747;28;20442;-57
2023/02/19 06:58:00;;;;;;;11.55;6.28;;;8.40;66.30;;;;;;20913305;28;20060;-60
2023/02/19 07:08:02;;;;;;;13.27;6.05;;;8.30;65.90;;;;;;20916404;28;20444;-59
2023/02/19 07:18:05;;;;;;;15.40;5.80;;;8.30;65.70;;;;;;20912603;28;20055;-57
2023/02/19 07:28:07;;;;;;;12.27;6.00;;;8.20;65.30;;;;;;20912535;28;20103;-58
2023/02/19 07:38:09;;;;;;;16.45;6.32;;;8.20;65.50;;;;;;20912956;28;20052;-56
2023/02/19 07:48:11;;;;;;;20.67;7.50;;;8.20;65.30;;;;;;20927454;28;20095;-58
2023/02/19 07:58:12;;;;;;;14.50;6.20;;;8.20;65.10;;;;;;20927224;28;20049;-56
2023/02/19 08:08:15;;;;;;;12.10;6.30;;;8.40;64.50;;;;;;20926729;28;20045;-57
2023/02/19 08:18:19;;;;;;;16.35;7.13;;;8.50;63.90;;;;;;20927183;28;20049;-58
2023/02/19 08:28:21;;;;;;;17.75;6.85;;;8.50;63.80;;;;;;20925103;28;20049;-58
2023/02/19 08:38:23;;;;;;;134.70;18.88;;;8.70;63.20;;;;;;20923742;28;20131;-57
2023/02/19 08:48:24;;;;;;;14.25;6.75;;;8.90;62.50;;;;;;20924971;28;20045;-61
2023/02/19 08:58:25;;;;;;;16.40;6.45;;;9.30;61.60;;;;;;20922076;28;20049;-60
2023/02/19 09:08:27;;;;;;;10.65;5.10;;;9.50;60.50;;;;;;20922685;28;20128;-56
2023/02/19 09:18:30;;;;;;;16.05;5.10;;;10.00;58.10;;;;;;20923811;28;20079;-54
2023/02/19 09:28:32;;;;;;;10.43;3.47;;;10.50;56.40;;;;;;20922752;28;20476;-60
2023/02/19 09:38:33;;;;;;;9.30;2.95;;;10.90;52.60;;;;;;20921120;28;20064;-58
2023/02/19 09:48:35;;;;;;;9.18;2.80;;;11.40;50.30;;;;;;20919945;28;20119;-57
2023/02/19 09:58:58;;;;;;;9.93;2.97;;;11.70;49.20;;;;;;20918824;28;20053;-56
2023/02/19 10:09:25;;;;;;;9.55;3.10;;;12.10;48.20;;;;;;20915915;28;20045;-57
2023/02/19 10:19:27;;;;;;;9.70;3.55;;;12.30;47.90;;;;;;20915010;28;20430;-54
2023/02/19 10:29:28;;;;;;;10.38;4.05;;;12.60;47.60;;;;;;20916066;28;20049;-54
2023/02/19 10:39:32;;;;;;;8.55;2.80;;;12.90;46.50;;;;;;20915898;28;20084;-56
2023/02/19 10:49:39;;;;;;;5.77;2.83;;;13.20;45.50;;;;;;20915898;28;20114;-56
2023/02/19 10:59:52;;;;;;;12.57;3.22;;;13.50;45.00;;;;;;20915340;28;20049;-59
2023/02/19 11:09:55;;;;;;;6.13;2.85;;;13.80;44.60;;;;;;20914365;28;20051;-58
2023/02/19 11:20:14;;;;;;;9.35;3.40;;;14.10;43.80;;;;;;20913188;28;20111;-56
2023/02/19 11:30:44;;;;;;;6.93;3.22;;;14.40;43.10;;;;;;20912685;28;20511;-59
2023/02/19 11:41:09;;;;;;;6.03;2.83;;;14.70;43.00;;;;;;20911406;28;20118;-57
2023/02/19 11:51:20;;;;;;;7.28;2.72;;;14.90;41.30;;;;;;20911573;28;20088;-60
2023/02/19 12:01:43;;;;;;;8.00;2.90;;;15.10;40.60;;;;;;20911613;28;20048;-57
2023/02/19 12:12:08;;;;;;;6.07;2.42;;;15.30;39.70;;;;;;20911840;28;20044;-53
2023/02/19 12:22:25;;;;;;;9.45;3.05;;;15.50;39.80;;;;;;20910046;28;20110;-56
2023/02/19 12:32:50;;;;;;;8.38;2.40;;;15.70;39.20;;;;;;20921636;28;20052;-55
2023/02/19 12:43:15;;;;;;;5.78;2.38;;;15.80;38.50;;;;;;20751063;28;20111;-54
2023/02/19 12:53:19;;;;;;;8.65;3.58;;;16.10;38.50;;;;;;20750096;28;20089;-56
2023/02/19 13:03:59;;;;;;;7.07;2.60;;;16.20;38.10;;;;;;20749603;28;20057;-56
2023/02/19 13:14:25;;;;;;;5.13;2.97;;;16.50;37.30;;;;;;20579809;28;20509;-57
2023/02/19 13:24:31;;;;;;;10.82;2.97;;;16.70;36.80;;;;;;20747372;28;20054;-69
2023/02/19 13:34:50;;;;;;;7.30;2.40;;;16.90;36.10;;;;;;20747280;28;20129;-57
2023/02/19 13:44:52;;;;;;;8.60;2.40;;;17.10;36.00;;;;;;20890508;28;20049;-58
2023/02/19 13:55:32;;;;;;;6.35;2.45;;;17.20;35.50;;;;;;20920165;28;20049;-68
2023/02/19 14:06:07;;;;;;;10.38;2.55;;;17.30;35.20;;;;;;20916861;28;20507;-56
2023/02/19 14:16:33;;;;;;;11.07;3.22;;;17.40;35.00;;;;;;20743398;28;20050;-57
2023/02/19 14:26:35;;;;;;;4.95;2.30;;;17.50;34.80;;;;;;20742736;28;20534;-57
2023/02/19 14:36:59;;;;;;;9.05;2.25;;;17.60;34.50;;;;;;20742501;28;20046;-56
2023/02/19 14:47:15;;;;;;;10.10;2.80;;;17.70;34.40;;;;;;20814577;28;20049;-58
2023/02/19 14:57:22;;;;;;;9.85;2.65;;;17.80;34.30;;;;;;20914868;28;20057;-57
2023/02/19 15:07:31;;;;;;;9.55;2.65;;;17.70;34.40;;;;;;20914345;28;20051;-54
2023/02/19 15:17:36;;;;;;;8.25;2.45;;;17.70;34.90;;;;;;20914441;28;20127;-56
2023/02/19 15:27:38;;;;;;;8.55;2.60;;;17.80;34.40;;;;;;20912945;28;20146;-55
2023/02/19 15:37:40;;;;;;;9.10;2.63;;;17.70;34.90;;;;;;20913326;28;20056;-54
2023/02/19 15:47:44;;;;;;;9.95;3.60;;;17.80;34.90;;;;;;20913129;28;20136;-56
2023/02/19 15:57:53;;;;;;;7.75;3.45;;;17.80;35.30;;;;;;20838769;28;20136;-57
2023/02/19 16:08:17;;;;;;;8.63;2.65;;;17.80;35.20;;;;;;20839696;28;20088;-56
2023/02/19 16:18:19;;;;;;;;;;;17.90;34.80;;;;;;20845108;28;20053;-63
2023/02/19 16:28:24;;;;;;;14.40;2.90;;;17.80;35.00;;;;;;20842907;28;19964;-57
2023/02/19 16:38:25;;;;;;;11.77;3.03;;;17.80;35.10;;;;;;20849597;28;20057;-56
2023/02/19 16:48:29;;;;;;;8.93;2.87;;;17.80;35.40;;;;;;20848130;28;20084;-57
2023/02/19 16:58:31;;;;;;;9.75;2.50;;;17.70;35.50;;;;;;20840065;28;20142;-57
2023/02/19 17:08:37;;;;;;;10.07;3.67;;;17.70;35.50;;;;;;20839266;28;20079;-60
2023/02/19 17:18:41;;;;;;;12.68;3.63;;;17.70;35.80;;;;;;20839936;28;20046;-57
2023/02/19 17:28:43;;;;;;;11.73;3.45;;;17.60;36.00;;;;;;20839273;28;20576;-56
2023/02/19 17:38:46;;;;;;;7.97;3.75;;;17.50;36.20;;;;;;20837989;28;20128;-57
2023/02/19 17:48:48;;;;;;;9.20;3.45;;;17.40;36.60;;;;;;20837608;28;20042;-57
2023/02/19 17:58:50;;;;;;;11.05;3.67;;;17.20;37.00;;;;;;20837754;28;20482;-56
2023/02/19 18:08:52;;;;;;;12.25;4.45;;;17.10;37.50;;;;;;20836005;28;20119;-57
2023/02/19 18:18:56;;;;;;;11.88;4.55;;;16.90;38.30;;;;;;20834035;28;20061;-56
2023/02/19 18:28:58;;;;;;;14.17;4.90;;;16.80;38.70;;;;;;20832392;28;20084;-57
2023/02/19 18:39:00;;;;;;;15.27;4.57;;;16.60;39.00;;;;;;20831960;28;20406;-56
2023/02/19 18:49:03;;;;;;;13.88;6.15;;;16.50;38.90;;;;;;20831643;28;20099;-56
2023/02/19 18:59:04;;;;;;;21.75;7.05;;;16.40;39.20;;;;;;20862368;28;20061;-57
2023/02/19 19:09:07;;;;;;;13.80;7.97;;;16.20;39.40;;;;;;20830419;28;20103;-58
2023/02/19 19:19:10;;;;;;;16.48;5.43;;;16.20;39.50;;;;;;20831815;28;20085;-58
2023/02/19 19:29:14;;;;;;;16.88;6.07;;;16.10;39.20;;;;;;20830692;28;20081;-57
2023/02/19 19:39:16;;;;;;;18.30;5.70;;;16.00;38.80;;;;;;20838059;28;20056;-57
2023/02/19 19:49:19;;;;;;;14.25;6.57;;;15.80;38.50;;;;;;20847453;28;20474;-57
2023/02/19 19:59:21;;;;;;;15.15;5.30;;;15.70;38.60;;;;;;20846186;28;20478;-56
2023/02/19 20:09:24;;;;;;;13.57;4.95;;;15.70;38.60;;;;;;20844876;28;20560;-58
2023/02/19 20:19:26;;;;;;;15.00;4.35;;;15.70;38.80;;;;;;20844187;28;20049;-59
2023/02/19 20:29:31;;;;;;;11.88;5.32;;;15.70;38.90;;;;;;20843251;28;20053;-57
2023/02/19 20:39:34;;;;;;;16.92;6.03;;;15.70;39.10;;;;;;20843163;28;20380;-57
2023/02/19 20:49:35;;;;;;;17.63;5.72;;;15.50;39.40;;;;;;20840695;28;20076;-60
2023/02/19 20:59:37;;;;;;;20.77;7.25;;;15.50;39.60;;;;;;20839072;28;20054;-59
2023/02/19 21:09:39;;;;;;;14.82;4.78;;;15.40;39.80;;;;;;20839667;28;20056;-57
2023/02/19 21:19:45;;;;;;;12.75;5.05;;;15.50;40.10;;;;;;20840065;28;20413;-58
2023/02/19 21:29:47;;;;;;;17.63;5.75;;;15.50;43.80;;;;;;20837890;28;20076;-57
2023/02/19 21:39:49;;;;;;;21.98;8.43;;;15.30;44.90;;;;;;20836759;28;20119;-54
2023/02/19 21:49:50;;;;;;;17.23;8.10;;;15.20;46.70;;;;;;20838513;28;20467;-58
2023/02/19 21:59:50;;;;;;;19.33;6.18;;;15.00;45.90;;;;;;20836112;28;20056;-60
2023/02/19 22:09:51;;;;;;;18.65;8.07;;;15.10;43.90;;;;;;20836306;28;20493;-57
2023/02/19 22:19:52;;;;;;;24.38;8.40;;;15.10;42.80;;;;;;20835488;28;20057;-59
2023/02/19 22:29:53;;;;;;;22.92;7.57;;;15.10;42.40;;;;;;20833897;28;20075;-58
2023/02/19 22:39:55;;;;;;;12.70;4.82;;;15.20;42.20;;;;;;20833661;28;20045;-58
2023/02/19 22:49:55;;;;;;;13.57;4.78;;;15.10;42.30;;;;;;20833391;28;20409;-56
2023/02/19 22:59:57;;;;;;;16.63;4.68;;;15.10;42.10;;;;;;20831325;28;20081;-57
2023/02/19 23:09:59;;;;;;;13.90;4.30;;;15.00;42.10;;;;;;20832094;28;20068;-57
2023/02/19 23:20:01;;;;;;;15.80;4.53;;;15.00;42.80;;;;;;20832002;28;20054;-62
2023/02/19 23:30:03;;;;;;;15.50;4.55;;;15.00;44.10;;;;;;20846112;28;20179;-56
2023/02/19 23:40:04;;;;;;;12.48;4.00;;;14.80;44.70;;;;;;20833376;28;20077;-56
2023/02/19 23:50:05;;;;;;;8.45;3.50;;;14.80;43.90;;;;;;20830569;28;20091;-56
